Time;durP1;ratioP1;P1;durP2;ratioP2;P2;SDS_P1;SDS_P2;PMS_P1;PMS_P2;Temp;Humidity;BMP_temperature;BMP_pressure;BME280_temperature;BME280_humidity;BME280_pressure;Samples;Min_cycle;Max_cycle;Signal;HPM_P1;HPM_P2
2022/08/18 00:01:12;;;;;;;4.68;3.88;;;;;;;23.66;67.40;98699.50;4916138;29;20235;-60
2022/08/18 00:03:40;;;;;;;5.40;3.70;;;;;;;23.64;67.37;98712.75;4915707;29;20299;-61
2022/08/18 00:06:07;;;;;;;5.28;3.90;;;;;;;23.62;67.12;98711.34;4915636;29;20236;-61
2022/08/18 00:08:34;;;;;;;4.13;3.20;;;;;;;23.61;67.40;98712.38;4916118;29;20200;-61
2022/08/18 00:11:01;;;;;;;5.85;3.45;;;;;;;23.58;67.68;98710.97;4915493;29;20220;-61
2022/08/18 00:13:29;;;;;;;5.72;3.63;;;;;;;23.54;67.91;98712.38;4915681;29;20208;-60
2022/08/18 00:15:56;;;;;;;4.80;3.50;;;;;;;23.47;67.30;98703.75;4915812;29;20247;-61
2022/08/18 00:18:22;;;;;;;6.57;3.83;;;;;;;23.47;67.00;98711.59;4915554;29;20211;-61
2022/08/18 00:20:49;;;;;;;6.60;3.50;;;;;;;23.41;67.41;98715.00;4915786;29;20220;-61
2022/08/18 00:23:17;;;;;;;4.07;3.28;;;;;;;23.31;68.05;98715.44;4915599;29;20603;-61
2022/08/18 00:25:44;;;;;;;4.80;3.50;;;;;;;23.32;68.85;98724.06;4915422;29;20228;-61
2022/08/18 00:28:11;;;;;;;4.60;3.53;;;;;;;23.25;68.67;98719.66;4915259;29;20294;-61
2022/08/18 00:30:40;;;;;;;4.85;3.50;;;;;;;23.28;67.88;98719.25;4915366;29;20224;-61
2022/08/18 00:33:07;;;;;;;4.65;3.55;;;;;;;23.24;67.97;98718.06;4915166;29;20210;-61
2022/08/18 00:35:36;;;;;;;3.65;3.05;;;;;;;23.18;68.89;98713.63;4915332;29;20221;-61
2022/08/18 00:38:05;;;;;;;4.72;3.50;;;;;;;23.15;68.86;98713.22;4915398;29;20211;-61
2022/08/18 00:40:37;;;;;;;4.53;3.20;;;;;;;23.10;69.92;98706.00;4915057;29;20251;-61
2022/08/18 00:43:06;;;;;;;5.07;3.40;;;;;;;23.07;70.22;98716.84;4915216;29;20208;-61
2022/08/18 00:45:36;;;;;;;5.70;3.17;;;;;;;23.04;70.23;98712.03;4915400;29;20614;-61
2022/08/18 00:48:06;;;;;;;5.30;3.47;;;;;;;23.00;70.61;98722.03;4915147;29;20246;-61
2022/08/18 00:50:40;;;;;;;5.40;3.70;;;;;;;23.01;70.10;98713.22;4914947;29;20228;-60
2022/08/18 00:53:12;;;;;;;5.80;3.55;;;;;;;22.96;71.07;98722.66;4914879;29;20200;-60
2022/08/18 00:55:40;;;;;;;4.82;3.50;;;;;;;22.95;71.17;98721.03;4915098;29;20247;-60
2022/08/18 00:58:14;;;;;;;4.83;3.87;;;;;;;22.90;72.11;98726.03;4914949;29;20199;-61
2022/08/18 01:00:41;;;;;;;6.23;4.03;;;;;;;22.83;72.54;98729.44;4914714;29;20401;-60
2022/08/18 01:03:14;;;;;;;5.43;3.80;;;;;;;22.79;72.33;98728.22;4914464;29;20208;-60
2022/08/18 01:05:47;;;;;;;9.47;4.17;;;;;;;22.80;72.46;98726.41;4913961;29;20255;-60
2022/08/18 01:08:16;;;;;;;5.63;3.50;;;;;;;22.74;72.54;98733.22;4914348;29;20203;-60
2022/08/18 01:10:44;;;;;;;5.30;3.40;;;;;;;22.68;73.23;98734.00;4914557;29;20733;-61
2022/08/18 01:13:11;;;;;;;5.97;3.93;;;;;;;22.68;72.50;98731.41;4914448;29;20750;-61
2022/08/18 01:15:38;;;;;;;5.23;3.93;;;;;;;22.63;73.27;98736.41;4914680;29;20757;-61
2022/08/18 01:23:52;;;;;;;5.77;3.67;;;;;;;22.49;74.61;98742.59;4914388;29;20637;-61
2022/08/18 01:26:20;;;;;;;6.37;3.73;;;;;;;22.44;74.88;98740.56;4914268;29;20225;-61
2022/08/18 01:28:48;;;;;;;5.72;3.97;;;;;;;22.40;75.56;98746.34;4914328;29;20611;-61
2022/08/18 01:31:33;;;;;;;5.80;4.07;;;;;;;22.32;75.51;98747.34;4914261;29;20754;-61
2022/08/18 01:34:01;;;;;;;4.73;3.63;;;;;;;22.34;75.38;98753.97;4914330;29;20204;-61
2022/08/18 01:36:28;;;;;;;5.17;3.40;;;;;;;22.38;74.84;98749.97;4914302;29;20278;-61
2022/08/18 01:38:57;;;;;;;6.20;3.63;;;;;;;22.30;75.51;98747.53;4913923;29;20218;-61
2022/08/18 01:41:24;;;;;;;5.87;3.67;;;;;;;22.29;75.32;98753.72;4914154;29;20403;-61
2022/08/18 01:43:51;;;;;;;5.90;4.10;;;;;;;22.26;75.42;98748.91;4913697;29;20678;-61
2022/08/18 01:46:20;;;;;;;4.77;3.37;;;;;;;22.14;75.94;98743.44;4913937;29;20657;-61
2022/08/18 01:48:48;;;;;;;4.93;3.70;;;;;;;22.13;76.18;98741.00;4913900;29;20207;-61
2022/08/18 01:51:16;;;;;;;4.60;3.63;;;;;;;22.19;76.77;98739.47;4913935;29;20299;-61
2022/08/18 01:53:43;;;;;;;6.00;4.10;;;;;;;22.11;76.56;98740.41;4913839;29;20607;-61
2022/08/18 01:56:16;;;;;;;5.17;3.87;;;;;;;22.05;76.78;98734.19;4913587;29;20740;-60
2022/08/18 01:58:46;;;;;;;5.23;3.83;;;;;;;21.98;77.44;98732.53;4914048;29;20246;-60
2022/08/18 02:01:13;;;;;;;4.13;3.37;;;;;;;21.93;77.54;98731.31;4913604;29;20325;-61
2022/08/18 02:03:44;;;;;;;5.80;3.87;;;;;;;21.90;77.37;98726.50;4913501;29;20213;-61
2022/08/18 02:06:15;;;;;;;4.97;3.43;;;;;;;21.86;77.92;98733.06;4912352;29;20345;-60
2022/08/18 02:08:42;;;;;;;5.17;3.70;;;;;;;21.74;78.33;98737.22;4913728;29;20603;-60
2022/08/18 02:11:09;;;;;;;5.60;3.70;;;;;;;21.71;78.86;98732.38;4913561;29;20231;-61
2022/08/18 02:13:39;;;;;;;6.53;3.83;;;;;;;21.70;78.99;98730.78;4913661;29;20208;-61
2022/08/18 02:16:06;;;;;;;5.40;3.70;;;;;;;21.63;78.42;98729.94;4913584;29;20223;-61
2022/08/18 02:18:36;;;;;;;6.43;3.70;;;;;;;21.61;78.75;98726.72;4913413;29;20233;-61
2022/08/18 02:21:08;;;;;;;5.40;3.77;;;;;;;21.61;79.01;98734.50;4913664;29;20726;-61
2022/08/18 02:23:36;;;;;;;6.20;3.90;;;;;;;21.64;79.02;98740.16;4913534;29;20201;-61
2022/08/18 02:26:05;;;;;;;5.40;3.60;;;;;;;21.65;79.33;98746.97;4913423;29;20734;-61
2022/08/18 02:28:32;;;;;;;5.43;3.80;;;;;;;21.69;79.30;98745.56;4913320;29;20207;-61
2022/08/18 02:31:06;;;;;;;6.07;3.80;;;;;;;21.72;79.49;98749.59;4913567;29;20724;-61
2022/08/18 02:33:34;;;;;;;5.20;3.63;;;;;;;21.70;79.65;98743.81;4913343;29;20276;-61
2022/08/18 02:36:01;;;;;;;5.17;3.73;;;;;;;21.76;78.60;98744.81;4912992;29;20255;-61
2022/08/18 02:38:28;;;;;;;6.03;3.47;;;;;;;21.70;79.12;98742.00;4913389;29;20592;-60
2022/08/18 02:40:56;;;;;;;6.20;4.00;;;;;;;21.74;78.48;98747.63;4913051;29;20238;-61
2022/08/18 02:43:23;;;;;;;5.03;3.70;;;;;;;21.72;78.37;98744.41;4913153;29;20214;-60
2022/08/18 02:45:50;;;;;;;5.00;3.53;;;;;;;21.67;78.81;98739.78;4913135;29;20286;-61
2022/08/18 02:48:21;;;;;;;5.73;4.30;;;;;;;21.63;79.34;98745.53;4913203;29;20207;-61
2022/08/18 02:50:48;;;;;;;6.37;3.80;;;;;;;21.61;78.92;98742.31;4913093;29;20238;-61
2022/08/18 02:53:20;;;;;;;6.03;3.90;;;;;;;21.60;79.18;98738.13;4912962;29;20199;-61
2022/08/18 02:55:47;;;;;;;4.67;3.70;;;;;;;21.59;79.96;98733.94;4913118;29;20737;-61
2022/08/18 02:58:14;;;;;;;4.93;3.60;;;;;;;21.54;80.31;98741.50;4912851;29;20250;-61
2022/08/18 03:00:42;;;;;;;5.20;3.90;;;;;;;21.54;79.84;98744.09;4913139;29;20238;-60
2022/08/18 03:03:09;;;;;;;7.13;3.90;;;;;;;21.54;80.05;98741.50;4912786;29;20753;-61
2022/08/18 03:05:37;;;;;;;5.47;4.07;;;;;;;21.50;80.16;98740.25;4912778;29;20255;-61
2022/08/18 03:08:04;;;;;;;5.77;3.80;;;;;;;21.44;80.22;98741.84;4912806;29;20204;-60
2022/08/18 03:10:31;;;;;;;7.40;4.03;;;;;;;21.43;80.14;98745.41;4913069;29;20230;-60
2022/08/18 03:12:58;;;;;;;5.13;3.60;;;;;;;21.52;79.61;98743.47;4912845;29;20279;-61
2022/08/18 03:15:25;;;;;;;6.23;4.07;;;;;;;21.47;80.26;98744.84;4912778;29;20236;-61
2022/08/18 03:17:52;;;;;;;5.97;4.00;;;;;;;21.43;80.10;98745.41;4912656;29;20438;-61
2022/08/18 03:20:19;;;;;;;6.00;3.97;;;;;;;21.44;80.27;98742.63;4912918;29;20223;-60
2022/08/18 03:22:48;;;;;;;5.33;3.87;;;;;;;21.47;80.65;98746.66;4913039;29;20206;-61
2022/08/18 03:25:15;;;;;;;8.37;4.33;;;;;;;21.45;80.26;98746.81;4913146;29;20232;-61
2022/08/18 03:27:42;;;;;;;5.27;3.80;;;;;;;21.44;79.92;98739.22;4912887;29;20592;-61
2022/08/18 03:30:10;;;;;;;4.83;3.60;;;;;;;21.43;79.75;98748.81;4914766;29;20235;-61
2022/08/18 03:32:36;;;;;;;6.63;3.90;;;;;;;21.41;79.99;98745.59;4916325;29;20745;-61
2022/08/18 03:35:04;;;;;;;5.70;3.97;;;;;;;21.38;80.81;98760.75;4916342;29;20235;-60
2022/08/18 03:37:32;;;;;;;5.53;3.80;;;;;;;21.36;81.08;98757.53;4916238;29;20241;-61
2022/08/18 03:40:00;;;;;;;5.03;3.80;;;;;;;21.30;81.67;98755.69;4916197;29;20262;-61
2022/08/18 03:42:27;;;;;;;7.00;3.70;;;;;;;21.28;81.87;98763.66;4916195;29;20199;-61
2022/08/18 03:44:54;;;;;;;5.30;3.60;;;;;;;21.32;81.79;98757.13;4916072;29;20227;-61
2022/08/18 03:47:20;;;;;;;6.33;4.10;;;;;;;21.33;81.85;98753.50;4916131;29;20212;-61
2022/08/18 03:49:47;;;;;;;5.90;3.80;;;;;;;21.33;81.59;98761.31;4916103;29;20234;-61
2022/08/18 03:52:14;;;;;;;5.53;3.70;;;;;;;21.34;81.25;98756.91;4915955;29;20693;-61
2022/08/18 03:54:42;;;;;;;5.23;4.20;;;;;;;21.36;81.09;98755.75;4915831;29;20254;-60
2022/08/18 03:57:11;;;;;;;6.07;4.03;;;;;;;21.23;81.21;98761.66;4915800;29;20235;-60
2022/08/18 03:59:42;;;;;;;6.20;4.43;;;;;;;21.22;81.77;98764.41;4915826;29;20230;-60
2022/08/18 04:02:10;;;;;;;7.17;4.73;;;;;;;21.24;81.71;98767.66;4915925;29;20201;-61
2022/08/18 04:04:38;;;;;;;7.93;4.30;;;;;;;21.28;81.76;98774.06;4915644;29;20716;-60
2022/08/18 04:07:08;;;;;;;7.03;4.70;;;;;;;21.32;81.76;98780.53;4916140;29;20216;-60
2022/08/18 04:09:37;;;;;;;6.63;4.57;;;;;;;21.34;81.68;98775.91;4915544;29;20225;-60
2022/08/18 04:12:11;;;;;;;7.37;4.77;;;;;;;21.34;81.67;98781.13;4915782;29;20211;-60
2022/08/18 04:14:40;;;;;;;7.57;4.63;;;;;;;21.45;81.13;98775.44;4915522;29;20783;-61
2022/08/18 04:17:08;;;;;;;7.07;5.23;;;;;;;21.55;81.36;98779.50;4915515;29;20338;-61
2022/08/18 04:19:36;;;;;;;5.97;4.53;;;;;;;21.56;80.62;98781.13;4915673;29;20234;-61
2022/08/18 04:22:05;;;;;;;6.37;4.77;;;;;;;21.59;81.24;98785.97;4915474;29;20653;-61
2022/08/18 04:24:33;;;;;;;5.83;4.50;;;;;;;21.71;81.39;98776.63;4915371;29;20734;-61
2022/08/18 04:27:03;;;;;;;6.77;4.30;;;;;;;21.75;80.97;98785.66;4915389;29;20212;-61
2022/08/18 04:29:30;;;;;;;6.20;4.40;;;;;;;21.83;80.43;98788.13;4915255;29;20291;-60
2022/08/18 04:32:03;;;;;;;6.70;4.80;;;;;;;21.96;80.69;98791.78;4915259;29;20207;-61
2022/08/18 04:34:31;;;;;;;6.70;4.80;;;;;;;21.97;79.67;98793.41;4915332;29;20279;-60
2022/08/18 04:36:59;;;;;;;7.13;4.50;;;;;;;22.02;79.53;98791.84;4915098;29;20804;-60
2022/08/18 04:39:26;;;;;;;6.53;5.10;;;;;;;22.12;79.03;98794.88;4915207;29;20207;-61
2022/08/18 04:41:53;;;;;;;5.80;4.53;;;;;;;22.20;78.53;98799.19;4915087;29;20620;-61
2022/08/18 04:44:20;;;;;;;7.50;4.53;;;;;;;22.36;78.86;98798.03;4915205;29;20199;-61
2022/08/18 04:46:49;;;;;;;5.47;4.30;;;;;;;22.52;79.38;98800.31;4915475;29;20201;-61
2022/08/18 04:49:19;;;;;;;6.90;4.40;;;;;;;22.69;78.45;98803.38;4914956;29;20213;-61
2022/08/18 04:53:43;;;;;;;6.97;4.40;;;;;;;22.79;78.13;98803.81;4915365;29;20211;-61
2022/08/18 04:54:37;;;;;;;6.33;4.73;;;;;;;22.90;77.61;98809.47;4914794;29;20307;-61
2022/08/18 04:57:09;;;;;;;5.97;4.43;;;;;;;22.96;75.97;98813.91;4914939;29;20268;-61
2022/08/18 04:59:36;;;;;;;7.15;4.22;;;;;;;23.05;75.20;98812.72;4914774;29;20224;-61
2022/08/18 05:02:07;;;;;;;6.72;4.63;;;;;;;23.05;71.99;98808.31;4914834;29;20208;-61
2022/08/18 05:04:36;;;;;;;6.55;4.28;;;;;;;23.35;73.97;98807.13;4914607;29;20251;-61
2022/08/18 05:07:04;;;;;;;5.03;4.05;;;;;;;23.44;71.94;98816.34;4914713;29;20220;-61
2022/08/18 05:09:32;;;;;;;7.07;4.75;;;;;;;23.61;71.08;98817.56;4914630;29;20660;-61
2022/08/18 05:12:01;;;;;;;5.35;4.30;;;;;;;23.80;71.79;98812.56;4914635;29;20216;-61
2022/08/18 05:14:28;;;;;;;5.38;4.07;;;;;;;23.93;69.20;98809.94;4914388;29;20217;-61
2022/08/18 05:16:58;;;;;;;5.60;4.30;;;;;;;24.07;69.42;98810.72;4914483;29;20204;-61
2022/08/18 05:19:25;;;;;;;5.05;3.90;;;;;;;24.22;69.37;98818.31;4914555;29;20216;-61
2022/08/18 05:21:56;;;;;;;5.38;4.40;;;;;;;24.46;70.23;98817.63;4914518;29;20212;-61
2022/08/18 05:24:24;;;;;;;5.68;4.20;;;;;;;24.61;67.45;98809.56;4914372;29;20208;-62
2022/08/18 05:26:52;;;;;;;5.20;4.20;;;;;;;24.81;67.05;98807.63;4914345;29;20235;-62
2022/08/18 05:29:20;;;;;;;5.70;4.07;;;;;;;25.10;65.06;98809.88;4914364;29;20570;-61
2022/08/18 05:31:48;;;;;;;5.50;4.32;;;;;;;25.21;66.05;98811.84;4914327;29;20259;-61
2022/08/18 05:34:15;;;;;;;4.97;4.00;;;;;;;25.37;65.14;98811.31;4914324;29;20204;-61
2022/08/18 05:36:59;;;;;;;4.63;3.83;;;;;;;25.58;65.41;98812.75;4914293;29;20215;-61
2022/08/18 05:39:30;;;;;;;5.03;3.85;;;;;;;25.68;63.20;98804.41;4914292;29;20200;-61
2022/08/18 05:42:04;;;;;;;5.68;4.03;;;;;;;25.84;64.36;98811.75;4914243;29;20208;-61
2022/08/18 05:44:34;;;;;;;5.00;4.05;;;;;;;26.04;64.54;98816.78;4913835;29;20303;-60
2022/08/18 05:47:05;;;;;;;5.28;4.05;;;;;;;26.18;61.28;98802.53;4914105;29;20231;-61
2022/08/18 05:49:35;;;;;;;6.65;4.38;;;;;;;26.43;61.87;98809.47;4913805;29;20729;-61
2022/08/18 05:52:06;;;;;;;4.95;4.00;;;;;;;26.58;61.30;98814.38;4913446;29;20200;-61
2022/08/18 05:57:26;;;;;;;5.03;4.00;;;;;;;26.81;59.98;98817.09;4913843;29;20288;-61
2022/08/18 05:59:54;;;;;;;6.65;4.30;;;;;;;26.84;58.60;98811.38;4913813;29;20224;-61
2022/08/18 06:02:32;;;;;;;6.07;4.68;;;;;;;26.80;59.21;98815.50;4913692;29;20209;-61
2022/08/18 06:05:03;;;;;;;6.43;4.78;;;;;;;27.16;62.74;98823.50;4913418;29;20752;-61
2022/08/18 06:07:37;;;;;;;8.40;5.80;;;;;;;27.38;58.40;98826.41;4913995;29;20200;-61
2022/08/18 06:10:08;;;;;;;4.88;4.25;;;;;;;27.50;61.31;98828.00;4913814;29;20227;-61
2022/08/18 06:12:38;;;;;;;5.53;4.25;;;;;;;27.81;59.68;98830.53;4913622;29;20674;-58
2022/08/18 06:15:10;;;;;;;5.90;4.30;;;;;;;28.07;60.09;98835.34;4913635;29;20220;-61
2022/08/18 06:17:52;;;;;;;4.40;3.90;;;;;;;28.14;56.88;98836.00;4913406;29;20252;-61
2022/08/18 06:20:28;;;;;;;4.82;4.00;;;;;;;28.32;57.27;98836.88;4913880;29;20235;-60
2022/08/18 06:23:08;;;;;;;5.10;3.85;;;;;;;28.52;57.06;98841.78;4913428;29;20211;-61
2022/08/18 06:25:42;;;;;;;6.50;4.65;;;;;;;28.74;59.13;98844.56;4913279;29;20228;-61
2022/08/18 06:28:14;;;;;;;5.18;3.83;;;;;;;28.84;54.79;98844.75;4913415;29;20203;-61
2022/08/18 06:30:50;;;;;;;5.57;4.13;;;;;;;28.86;56.15;98845.31;4913438;29;20566;-61
2022/08/18 06:33:35;;;;;;;4.20;3.60;;;;;;;29.08;54.84;98845.47;4913396;29;20199;-61
2022/08/18 06:36:11;;;;;;;4.43;3.33;;;;;;;29.10;52.88;98838.94;4913492;29;20230;-61
2022/08/18 06:42:04;;;;;;;4.90;3.63;;;;;;;29.63;51.33;98855.34;4913209;29;20600;-61
2022/08/18 06:44:35;;;;;;;4.40;3.38;;;;;;;29.58;50.35;98854.44;4912988;29;20314;-61
2022/08/18 06:47:17;;;;;;;4.57;3.35;;;;;;;29.64;50.13;98850.84;4913176;29;20216;-61
2022/08/18 06:49:49;;;;;;;5.50;3.70;;;;;;;29.97;52.41;98853.44;4912997;29;20220;-61
2022/08/18 06:52:26;;;;;;;4.15;3.42;;;;;;;30.27;53.36;98852.28;4913163;29;20212;-61
2022/08/18 06:54:54;;;;;;;4.15;3.30;;;;;;;30.46;48.95;98850.16;4913268;29;20223;-61
2022/08/18 06:57:30;;;;;;;5.45;3.60;;;;;;;30.62;51.12;98848.47;4913249;29;20204;-61
2022/08/18 07:00:00;;;;;;;4.30;3.83;;;;;;;30.89;49.65;98849.31;4913128;29;20239;-61
2022/08/18 07:02:39;;;;;;;4.38;3.63;;;;;;;31.16;49.53;98855.63;4912977;29;20200;-62
2022/08/18 07:05:08;;;;;;;4.18;3.58;;;;;;;31.15;48.34;98857.44;4914677;29;20246;-62
2022/08/18 07:07:38;;;;;;;3.97;3.33;;;;;;;31.33;49.39;98851.03;4917110;29;20247;-62
2022/08/18 07:10:08;;;;;;;5.85;3.85;;;;;;;30.84;45.17;98857.19;4916746;29;20220;-62
2022/08/18 07:12:36;;;;;;;5.28;4.18;;;;;;;31.21;46.86;98856.44;4916814;29;20211;-62
2022/08/18 07:15:06;;;;;;;4.25;3.05;;;;;;;31.30;45.31;98865.53;4916758;29;20220;-62
2022/08/18 07:17:36;;;;;;;4.85;3.63;;;;;;;31.48;48.46;98859.09;4916712;29;20208;-62
2022/08/18 07:20:09;;;;;;;4.68;3.63;;;;;;;31.63;44.23;98861.03;4916729;29;20698;-62
2022/08/18 07:22:57;;;;;;;4.03;3.50;;;;;;;31.79;46.86;98865.38;4916836;29;20196;-62
2022/08/18 07:25:28;;;;;;;5.20;3.53;;;;;;;32.02;45.79;98864.19;4916502;29;20734;-62
2022/08/18 07:27:56;;;;;;;5.72;3.40;;;;;;;32.17;46.76;98862.69;4916385;29;20291;-62
2022/08/18 07:30:34;;;;;;;4.60;3.60;;;;;;;32.23;44.23;98861.66;4916328;29;20235;-62
2022/08/18 07:33:11;;;;;;;4.43;3.58;;;;;;;32.67;49.23;98861.34;4916639;29;20200;-62
2022/08/18 07:35:42;;;;;;;3.78;3.35;;;;;;;32.63;44.52;98861.03;4916684;29;20228;-62
2022/08/18 07:38:16;;;;;;;4.22;3.50;;;;;;;32.93;45.87;98859.53;4916298;29;20282;-62
2022/08/18 07:40:47;;;;;;;4.40;3.50;;;;;;;33.14;42.56;98865.66;4916544;29;20224;-63
2022/08/18 07:43:23;;;;;;;4.07;3.30;;;;;;;33.10;42.30;98867.25;4916491;29;20603;-62
2022/08/18 07:45:53;;;;;;;5.00;4.15;;;;;;;33.24;41.44;98865.66;4916404;29;20716;-63
2022/08/18 07:48:25;;;;;;;5.25;4.20;;;;;;;33.22;42.66;98866.97;4916116;29;20605;-62
2022/08/18 07:50:59;;;;;;;4.55;3.60;;;;;;;33.30;42.18;98863.81;4916277;29;20231;-64
2022/08/18 07:53:36;;;;;;;4.28;3.53;;;;;;;33.26;41.10;98865.41;4916431;29;20235;-63
2022/08/18 07:56:06;;;;;;;5.45;3.63;;;;;;;33.44;42.03;98872.03;4916405;29;20601;-63
2022/08/18 07:58:43;;;;;;;4.57;3.83;;;;;;;33.51;41.18;98868.09;4915909;29;20236;-63
2022/08/18 08:01:16;;;;;;;4.53;3.70;;;;;;;33.60;42.19;98863.03;4916354;29;20239;-63
2022/08/18 08:03:51;;;;;;;4.97;3.97;;;;;;;33.73;42.20;98864.34;4915808;29;20678;-63
2022/08/18 08:06:27;;;;;;;4.10;3.58;;;;;;;33.85;41.93;98869.34;4915785;29;20610;-63
2022/08/18 08:09:02;;;;;;;3.90;3.50;;;;;;;34.10;42.38;98865.88;4915546;29;20215;-63
2022/08/18 08:11:43;;;;;;;4.45;3.30;;;;;;;34.38;42.37;98862.53;4915924;29;20226;-65
2022/08/18 08:14:26;;;;;;;4.53;3.83;;;;;;;34.56;38.92;98868.34;4915455;29;20261;-63
2022/08/18 08:17:04;;;;;;;4.35;3.83;;;;;;;34.39;39.77;98858.84;4915164;29;20644;-63
2022/08/18 08:19:49;;;;;;;4.35;3.67;;;;;;;34.62;39.31;98851.34;4915445;29;20243;-64
2022/08/18 08:22:22;;;;;;;3.55;3.25;;;;;;;34.73;37.62;98858.13;4915695;29;20201;-63
2022/08/18 08:24:56;;;;;;;3.67;3.30;;;;;;;34.95;38.84;98854.31;4915447;29;20216;-63
2022/08/18 08:27:32;;;;;;;4.22;3.65;;;;;;;35.00;37.03;98856.94;4915539;29;20570;-64
2022/08/18 08:30:05;;;;;;;5.10;3.70;;;;;;;35.15;38.51;98848.88;4915132;29;20223;-64
2022/08/18 08:32:35;;;;;;;4.70;3.78;;;;;;;35.40;43.15;98855.81;4915467;29;20683;-63
2022/08/18 08:35:08;;;;;;;4.93;3.58;;;;;;;35.53;35.48;98851.72;4915425;29;20228;-64
2022/08/18 08:37:41;;;;;;;4.28;3.70;;;;;;;35.52;35.07;98855.44;4915447;29;20220;-63
2022/08/18 08:40:16;;;;;;;5.35;3.78;;;;;;;35.67;36.46;98855.34;4914904;29;20236;-64
2022/08/18 08:42:51;;;;;;;3.67;3.38;;;;;;;35.81;40.37;98850.13;4915128;29;20211;-64
2022/08/18 08:45:26;;;;;;;4.10;3.70;;;;;;;35.83;36.76;98854.09;4915132;29;20215;-66
2022/08/18 08:48:01;;;;;;;3.88;3.45;;;;;;;36.03;37.80;98853.06;4914992;29;20203;-64
2022/08/18 08:50:30;;;;;;;3.90;3.47;;;;;;;35.69;35.68;98850.50;4915442;29;20615;-64
2022/08/18 08:53:03;;;;;;;4.30;3.55;;;;;;;35.55;35.91;98852.28;4914945;29;20291;-64
2022/08/18 08:55:33;;;;;;;3.35;3.00;;;;;;;35.80;35.85;98854.66;4915244;29;20231;-63
2022/08/18 08:58:16;;;;;;;4.03;3.30;;;;;;;36.08;34.72;98849.59;4914896;29;20212;-63
2022/08/18 09:00:47;;;;;;;3.92;3.22;;;;;;;36.38;35.98;98847.63;4914886;29;20255;-64
2022/08/18 09:03:35;;;;;;;3.85;3.45;;;;;;;36.26;34.47;98835.50;4914795;29;20238;-63
2022/08/18 09:06:12;;;;;;;3.38;3.08;;;;;;;36.47;34.62;98835.25;4914522;29;20235;-64
2022/08/18 09:08:53;;;;;;;4.63;3.78;;;;;;;36.48;32.87;98834.19;4914628;29;20200;-64
2022/08/18 09:11:48;;;;;;;4.53;3.30;;;;;;;36.39;32.96;98827.91;4914822;29;20717;-64
2022/08/18 09:14:46;;;;;;;5.10;3.30;;;;;;;36.30;34.76;98829.63;4909853;29;20228;-64
2022/08/18 09:17:46;;;;;;;4.05;3.65;;;;;;;36.25;34.79;98825.97;4914594;29;20216;-64
2022/08/18 09:20:36;;;;;;;3.50;3.17;;;;;;;36.68;35.43;98825.13;4914343;29;20717;-65
2022/08/18 09:23:08;;;;;;;4.30;3.50;;;;;;;36.90;33.94;98832.53;4914492;29;20215;-65
2022/08/18 09:25:47;;;;;;;3.72;3.17;;;;;;;36.98;35.16;98837.19;4914756;29;20231;-64
2022/08/18 09:28:18;;;;;;;5.57;3.72;;;;;;;37.35;32.89;98823.00;4913689;29;20584;-65
2022/08/18 09:30:51;;;;;;;4.03;3.63;;;;;;;37.26;32.02;98822.06;4914591;29;20255;-65
2022/08/18 09:33:46;;;;;;;4.65;3.50;;;;;;;37.23;31.66;98824.53;4914364;29;20678;-64
2022/08/18 09:36:27;;;;;;;3.75;3.00;;;;;;;36.92;32.21;98833.03;4914462;29;20233;-64
2022/08/18 09:41:49;;;;;;;3.53;3.20;;;;;;;37.04;32.46;98820.06;4914277;29;20295;-65
2022/08/18 09:44:54;;;;;;;3.85;3.40;;;;;;;37.04;30.37;98822.72;4913851;29;20579;-65
2022/08/18 09:47:59;;;;;;;4.00;3.33;;;;;;;37.16;35.01;98812.38;4914018;29;20208;-64
2022/08/18 09:50:37;;;;;;;3.88;3.45;;;;;;;37.15;30.76;98813.47;4914001;29;20224;-64
2022/08/18 09:53:35;;;;;;;3.88;3.30;;;;;;;37.25;34.82;98806.38;4914005;29;20208;-64
2022/08/18 09:56:02;;;;;;;5.07;3.20;;;;;;;37.07;32.82;98811.47;4904749;29;20228;-65
2022/08/18 09:59:00;;;;;;;4.00;3.35;;;;;;;37.20;31.14;98801.13;4913713;29;20211;-65
2022/08/18 10:01:38;;;;;;;3.55;3.10;;;;;;;37.52;32.99;98790.44;4913792;29;20812;-64
2022/08/18 10:04:33;;;;;;;3.80;3.40;;;;;;;37.47;30.45;98787.88;4913863;29;20208;-65
2022/08/18 10:07:29;;;;;;;3.40;3.10;;;;;;;37.63;32.28;98783.03;4901127;29;20636;-65
2022/08/18 10:10:11;;;;;;;4.47;3.42;;;;;;;37.57;30.64;98785.00;4911593;29;20280;-65
2022/08/18 10:13:00;;;;;;;4.20;3.00;;;;;;;37.73;31.61;98779.38;4914008;29;20604;-65
2022/08/18 10:15:53;;;;;;;3.47;3.17;;;;;;;37.92;31.16;98773.94;4913778;29;20239;-59
2022/08/18 10:18:41;;;;;;;4.20;3.42;;;;;;;38.27;30.83;98775.06;4913834;29;20211;-66
2022/08/18 10:21:13;;;;;;;4.35;3.17;;;;;;;38.04;28.08;98767.00;4913662;29;20231;-60
2022/08/18 10:23:57;;;;;;;4.18;3.33;;;;;;;37.72;29.46;98767.91;4913607;29;20208;-59
2022/08/18 10:27:08;;;;;;;4.20;3.47;;;;;;;37.91;30.25;98765.13;4913407;29;20640;-59
2022/08/18 10:29:54;;;;;;;4.05;3.42;;;;;;;38.07;29.03;98765.63;4907892;29;20714;-59
2022/08/18 10:32:43;;;;;;;3.60;2.95;;;;;;;37.92;30.95;98769.38;4913566;29;20266;-67
2022/08/18 10:35:52;;;;;;;3.60;3.10;;;;;;;38.34;31.17;98762.09;4913429;29;20279;-66
2022/08/18 10:38:35;;;;;;;4.55;3.20;;;;;;;38.19;28.94;98757.09;4906602;29;20295;-66
2022/08/18 10:41:08;;;;;;;3.80;3.10;;;;;;;38.04;27.52;98759.00;4913615;29;20230;-67
2022/08/18 10:43:40;;;;;;;4.10;3.20;;;;;;;38.56;30.33;98764.00;4913115;29;20204;-66
2022/08/18 10:46:17;;;;;;;3.65;3.25;;;;;;;38.16;26.75;98765.69;4913438;29;20247;-67
2022/08/18 10:48:44;;;;;;;4.07;3.38;;;;;;;38.34;29.12;98762.09;4913300;29;20204;-59
2022/08/18 10:51:20;;;;;;;3.58;3.22;;;;;;;38.09;27.44;98765.34;4913610;29;20263;-66
2022/08/18 10:53:54;;;;;;;3.40;3.10;;;;;;;37.94;27.60;98748.56;4913619;29;20215;-67
2022/08/18 10:56:31;;;;;;;3.67;3.28;;;;;;;37.99;27.53;98747.63;4913234;29;20652;-66
2022/08/18 10:59:10;;;;;;;3.67;3.35;;;;;;;38.21;27.64;98746.91;4912958;29;20235;-66
2022/08/18 11:02:01;;;;;;;4.18;3.50;;;;;;;38.25;26.75;98743.34;4913270;29;20517;-58
2022/08/18 11:04:35;;;;;;;3.72;3.33;;;;;;;38.41;30.70;98741.13;4913020;29;20232;-67
2022/08/18 11:07:07;;;;;;;3.72;3.33;;;;;;;38.58;27.26;98745.03;4913097;29;20204;-66
2022/08/18 11:09:34;;;;;;;5.25;3.65;;;;;;;38.64;28.84;98743.78;4912927;29;20228;-66
2022/08/18 11:12:04;;;;;;;4.45;3.85;;;;;;;38.56;29.27;98747.19;4912930;29;20297;-67
2022/08/18 11:15:05;;;;;;;4.63;3.83;;;;;;;38.31;27.19;98743.19;4913195;29;20242;-67
2022/08/18 11:17:46;;;;;;;5.50;4.13;;;;;;;38.05;28.84;98743.75;4911376;29;20211;-66
2022/08/18 11:20:16;;;;;;;5.00;3.75;;;;;;;38.09;27.50;98739.41;4912936;29;20322;-67
2022/08/18 11:22:51;;;;;;;4.60;3.85;;;;;;;38.17;30.17;98725.34;4913155;29;20215;-67
2022/08/18 11:25:29;;;;;;;4.32;3.80;;;;;;;38.48;28.76;98738.81;4913111;29;20232;-67
2022/08/18 11:27:59;;;;;;;5.55;4.18;;;;;;;38.43;27.04;98738.94;4912854;29;20303;-67
2022/08/18 11:30:28;;;;;;;6.00;3.83;;;;;;;38.26;31.49;98733.44;4912879;29;20717;-67
2022/08/18 11:32:55;;;;;;;4.55;3.70;;;;;;;38.67;29.74;98727.94;4912749;29;20423;-67
2022/08/18 11:35:29;;;;;;;5.00;4.05;;;;;;;38.86;29.10;98725.06;4912708;29;20224;-67
2022/08/18 11:37:59;;;;;;;4.38;3.90;;;;;;;39.02;27.37;98728.16;4912884;29;20212;-67
2022/08/18 11:40:33;;;;;;;4.30;3.78;;;;;;;38.88;26.57;98716.75;4912413;29;20323;-67
2022/08/18 11:43:05;;;;;;;6.32;4.50;;;;;;;38.66;27.70;98718.34;4912725;29;20650;-67
2022/08/18 11:45:35;;;;;;;5.07;3.97;;;;;;;38.41;26.84;98719.75;4912760;29;20224;-67
2022/08/18 11:48:18;;;;;;;6.60;4.22;;;;;;;38.55;27.54;98726.94;4912654;29;20211;-67
2022/08/18 11:50:48;;;;;;;4.53;3.78;;;;;;;38.66;26.72;98718.34;4913839;29;20362;-60
2022/08/18 11:53:22;;;;;;;5.85;3.92;;;;;;;38.80;29.09;98715.59;4916410;29;20200;-58
2022/08/18 11:56:04;;;;;;;5.03;4.30;;;;;;;38.58;27.13;98710.28;4916120;29;20231;-59
2022/08/18 11:58:44;;;;;;;4.90;3.70;;;;;;;38.57;28.22;98698.78;4916262;29;20200;-58
2022/08/18 12:01:28;;;;;;;5.43;4.10;;;;;;;38.35;28.57;98706.81;4915675;29;20338;-59
2022/08/18 12:03:56;;;;;;;4.40;3.97;;;;;;;38.53;28.19;98700.50;4915963;29;20196;-59
2022/08/18 12:06:27;;;;;;;5.03;4.03;;;;;;;38.47;28.01;98702.50;4915647;29;20268;-59
2022/08/18 12:08:59;;;;;;;5.22;4.07;;;;;;;38.53;28.57;98695.16;4915921;29;20204;-66
2022/08/18 12:11:29;;;;;;;6.10;4.10;;;;;;;38.65;27.69;98698.06;4916072;29;20702;-67
2022/08/18 12:14:04;;;;;;;5.85;4.05;;;;;;;38.65;26.16;98697.28;4915599;29;20203;-66
2022/08/18 12:16:34;;;;;;;4.78;3.85;;;;;;;38.02;26.43;98697.13;4915655;29;20234;-67